This is the latest recevied weather packets stored in our database for station/object DC0PP-10. If no packets are shown the sender has not sent any weather packets the latest 1 day(s).
| Time | Temp. | Humidity | Pressure | Rain* | Wind** | Luminosity | Snow |
|---|---|---|---|---|---|---|---|
| 1788580291 | 16.67° C | 86% | 1022.2 hPa | - | - | - | - |
| 1788579390 | 17.22° C | 82% | 1022.2 hPa | - | - | - | - |
| 1788578490 | 18.89° C | 75% | 1022 hPa | - | - | - | - |
| 1788577590 | 22.78° C | 65% | 1021.9 hPa | - | - | - | - |
| 1788576690 | 23.33° C | 64% | 1022.3 hPa | - | - | - | - |
| 1788575790 | 24.44° C | 63% | 1022.2 hPa | - | - | - | - |
| 1788574890 | 22.78° C | 69% | 1022.2 hPa | - | - | - | - |
| 1788573990 | 21.67° C | 74% | 1022.1 hPa | - | - | - | - |
| 1788573089 | 25° C | 64% | 1021.3 hPa | - | - | - | - |
| 1788572189 | 25° C | 61% | 1020.8 hPa | - | - | - | - |
| 1788571289 | 25.56° C | 60% | 1020.3 hPa | - | - | - | - |
| 1788570388 | 25.56° C | 60% | 1020.1 hPa | - | - | - | - |
| 1788569491 | 25.56° C | 60% | 1020.1 hPa | - | - | - | - |
| 1788568591 | 25.56° C | 59% | 1020 hPa | - | - | - | - |
| 1788567690 | 25.56° C | 59% | 1019.8 hPa | - | - | - | - |
| 1788566790 | 25.56° C | 58% | 1019.6 hPa | - | - | - | - |
| 1788565890 | 25.56° C | 59% | 1019.5 hPa | - | - | - | - |
| 1788564990 | 25.56° C | 58% | 1019.4 hPa | - | - | - | - |
| 1788564090 | 25.56° C | 58% | 1019.2 hPa | - | - | - | - |
| 1788563190 | 25.56° C | 57% | 1019.2 hPa | - | - | - | - |
| 1788562290 | 25.56° C | 57% | 1019.1 hPa | - | - | - | - |
| 1788561390 | 25.56° C | 57% | 1019.1 hPa | - | - | - | - |
| 1788560489 | 25.56° C | 57% | 1018.9 hPa | - | - | - | - |
| 1788559589 | 25.56° C | 58% | 1018.7 hPa | - | - | - | - |
| 1788558689 | 25.56° C | 59% | 1018.3 hPa | - | - | - | - |
* Rain since midnight (hover to see other rain measurements)
** Current wind speed in m/s (hover to see current wind gust speed)